createdAt,value
2022-12-25T00:01:52.696Z,78.85
2022-12-25T00:04:55.083Z,78.34
2022-12-25T00:07:57.147Z,78.16
2022-12-25T00:11:05.905Z,77.12
2022-12-25T00:14:07.970Z,76.51
2022-12-25T00:17:09.941Z,77.04
2022-12-25T00:20:12.015Z,75.73
2022-12-25T00:23:15.266Z,76.69
2022-12-25T00:26:17.973Z,76.51
2022-12-25T00:29:20.269Z,75.82
2022-12-25T00:32:22.382Z,75.25
2022-12-25T00:35:24.269Z,75.79
2022-12-25T00:38:26.849Z,75.63
2022-12-25T00:41:47.706Z,75.63
2022-12-25T00:44:51.972Z,74.67
2022-12-25T00:47:54.284Z,74.61
2022-12-25T00:50:58.745Z,74.82
2022-12-25T00:54:00.944Z,74.79
2022-12-25T00:57:03.499Z,73.57
2022-12-25T01:00:06.064Z,74.10
2022-12-25T01:03:10.371Z,73.82
2022-12-25T01:06:13.283Z,73.63
2022-12-25T01:09:34.984Z,74.05
2022-12-25T01:12:40.150Z,74.99
2022-12-25T01:15:42.507Z,74.56
2022-12-25T01:18:47.006Z,74.63
2022-12-25T01:21:48.997Z,74.00
2022-12-25T01:24:51.120Z,73.63
2022-12-25T01:27:53.157Z,73.32
2022-12-25T01:30:55.149Z,73.60
2022-12-25T01:33:57.337Z,73.97
2022-12-25T01:36:59.491Z,73.93
2022-12-25T01:40:02.342Z,73.51
2022-12-25T01:43:05.226Z,73.71
2022-12-25T01:46:07.463Z,72.87
2022-12-25T01:49:25.185Z,73.13
2022-12-25T01:52:27.390Z,73.09
2022-12-25T01:55:30.654Z,72.89
2022-12-25T01:58:33.578Z,72.76
2022-12-25T02:01:36.178Z,73.21
2022-12-25T02:04:52.332Z,73.12
2022-12-25T02:07:55.962Z,72.26
2022-12-25T02:10:58.839Z,73.55
2022-12-25T02:14:01.848Z,72.95
2022-12-25T02:17:39.435Z,73.40
2022-12-25T02:21:00.147Z,71.83
2022-12-25T02:24:40.255Z,72.70
2022-12-25T02:28:04.269Z,71.87
2022-12-25T02:31:39.194Z,71.85
2022-12-25T02:34:44.404Z,71.70
2022-12-25T02:37:56.077Z,73.15
2022-12-25T02:41:02.535Z,71.90
2022-12-25T02:44:30.884Z,72.34
2022-12-25T02:47:53.022Z,72.86
2022-12-25T02:51:15.784Z,72.39
2022-12-25T02:54:40.993Z,73.37
2022-12-25T02:58:07.580Z,72.87
2022-12-25T03:01:37.543Z,72.95
2022-12-25T03:04:58.139Z,73.15
2022-12-25T03:08:05.172Z,71.76
2022-12-25T03:11:29.197Z,70.53
2022-12-25T03:14:49.658Z,70.92
2022-12-25T03:17:54.907Z,69.97
2022-12-25T03:21:18.229Z,70.42
2022-12-25T03:24:40.183Z,70.14
2022-12-25T03:27:58.174Z,71.58
2022-12-25T03:31:13.579Z,71.90
2022-12-25T03:34:53.088Z,73.20
2022-12-25T03:38:25.793Z,72.60
2022-12-25T03:42:06.359Z,73.42
2022-12-25T03:45:31.519Z,74.05
2022-12-25T03:48:58.490Z,73.73
2022-12-25T03:52:21.839Z,73.65
2022-12-25T03:55:45.159Z,74.16
2022-12-25T03:59:21.111Z,74.24
2022-12-25T04:02:44.644Z,72.80
2022-12-25T04:06:05.352Z,71.83
2022-12-25T04:09:26.113Z,71.76
2022-12-25T04:12:46.877Z,71.11
2022-12-25T04:16:07.788Z,71.46
2022-12-25T04:19:28.885Z,71.92
2022-12-25T04:22:49.520Z,71.66
2022-12-25T04:26:10.207Z,73.72
2022-12-25T04:29:30.848Z,73.95
2022-12-25T04:32:51.812Z,73.85
2022-12-25T04:36:12.977Z,74.29
2022-12-25T04:39:15.008Z,73.79
2022-12-25T04:42:18.075Z,74.39
2022-12-25T04:45:20.471Z,73.80
2022-12-25T04:48:23.059Z,73.16
2022-12-25T04:51:25.959Z,73.10
2022-12-25T04:54:28.291Z,72.83
2022-12-25T04:57:30.342Z,73.19
2022-12-25T05:00:32.382Z,72.73
2022-12-25T05:03:34.978Z,72.48
2022-12-25T05:06:37.122Z,72.22
2022-12-25T05:09:41.955Z,71.96
2022-12-25T05:12:44.558Z,71.53
2022-12-25T05:15:46.956Z,72.25
2022-12-25T05:18:51.136Z,73.28
2022-12-25T05:21:55.176Z,73.27
2022-12-25T05:24:57.291Z,72.33
2022-12-25T05:27:59.364Z,72.67
2022-12-25T05:31:01.415Z,73.59
2022-12-25T05:34:03.584Z,71.52
2022-12-25T05:37:05.796Z,64.96
2022-12-25T05:40:11.129Z,59.82
2022-12-25T05:43:13.225Z,55.66
2022-12-25T05:46:15.345Z,55.53
2022-12-25T05:49:17.388Z,53.32
2022-12-25T05:52:19.478Z,51.46
2022-12-25T05:55:21.584Z,53.37
2022-12-25T05:58:23.716Z,52.97
2022-12-25T06:01:28.866Z,51.11
2022-12-25T06:04:31.030Z,50.94
2022-12-25T06:07:33.312Z,52.54
2022-12-25T06:10:36.559Z,49.68
2022-12-25T06:13:41.542Z,48.13
2022-12-25T06:16:43.750Z,48.65
2022-12-25T06:19:46.174Z,49.52
2022-12-25T06:22:49.508Z,46.94
2022-12-25T06:25:51.583Z,48.47
2022-12-25T06:28:53.784Z,49.68
2022-12-25T06:31:57.546Z,47.50
2022-12-25T06:34:59.676Z,47.57
2022-12-25T06:38:07.032Z,48.48
2022-12-25T06:41:11.123Z,48.23
2022-12-25T06:44:14.166Z,47.47
2022-12-25T06:47:16.243Z,51.71
2022-12-25T06:50:18.621Z,55.70
2022-12-25T06:53:20.721Z,59.00
2022-12-25T06:56:25.561Z,63.40
2022-12-25T06:59:27.608Z,59.81
2022-12-25T07:02:30.091Z,56.57
2022-12-25T07:05:32.162Z,57.27
2022-12-25T07:08:36.660Z,57.06
2022-12-25T07:11:38.778Z,56.63
2022-12-25T07:14:42.083Z,56.30
2022-12-25T07:17:44.566Z,58.97
2022-12-25T07:20:46.827Z,59.04
2022-12-25T07:23:50.212Z,57.67
2022-12-25T07:26:53.667Z,61.15
2022-12-25T07:29:55.861Z,65.14
2022-12-25T07:32:57.850Z,66.87
2022-12-25T07:36:01.081Z,68.84
2022-12-25T07:39:05.519Z,71.38
2022-12-25T07:42:07.626Z,70.72
2022-12-25T07:45:13.211Z,68.68
2022-12-25T07:48:16.935Z,70.06
2022-12-25T07:51:19.273Z,70.56
2022-12-25T07:54:21.615Z,70.40
2022-12-25T07:57:26.972Z,71.89
2022-12-25T08:00:32.843Z,70.80
2022-12-25T08:03:35.739Z,69.75
2022-12-25T08:06:41.053Z,70.49
2022-12-25T08:09:45.351Z,68.18
2022-12-25T08:12:47.488Z,66.26
2022-12-25T08:15:49.611Z,65.80
2022-12-25T08:18:51.867Z,64.43
2022-12-25T08:21:53.913Z,66.17
2022-12-25T08:24:56.008Z,67.43
2022-12-25T08:28:01.500Z,68.61
2022-12-25T08:31:18.097Z,68.43
2022-12-25T08:34:20.571Z,68.99
2022-12-25T08:37:22.677Z,70.06
2022-12-25T08:40:26.356Z,70.29
2022-12-25T08:53:54.164Z,71.57
2022-12-25T09:17:19.457Z,68.10
2022-12-25T09:24:19.497Z,69.02
2022-12-25T09:27:53.491Z,69.10
2022-12-25T09:30:55.787Z,69.65
2022-12-25T09:33:58.861Z,70.18
2022-12-25T09:37:01.245Z,68.92
2022-12-25T09:40:04.399Z,68.77
2022-12-25T09:43:06.391Z,69.71
2022-12-25T09:46:15.358Z,69.38
2022-12-25T09:49:39.294Z,69.97
2022-12-25T09:52:52.797Z,69.75
2022-12-25T09:56:12.924Z,70.57
2022-12-25T09:59:25.748Z,70.99
2022-12-25T10:02:34.134Z,71.32
2022-12-25T10:05:49.967Z,71.59
2022-12-25T10:09:03.716Z,66.30
2022-12-25T10:12:27.361Z,60.04
2022-12-25T10:16:07.548Z,57.77
2022-12-25T10:19:34.814Z,58.42
2022-12-25T10:23:00.515Z,55.21
2022-12-25T10:26:17.376Z,55.03
2022-12-25T10:29:20.177Z,57.24
2022-12-25T10:32:23.164Z,55.60
2022-12-25T10:35:28.139Z,55.02
2022-12-25T10:38:30.159Z,56.62
2022-12-25T10:41:53.976Z,54.11
2022-12-25T10:45:01.156Z,53.62
2022-12-25T10:48:08.194Z,53.70
2022-12-25T10:51:13.965Z,53.61
2022-12-25T10:54:28.964Z,54.84
2022-12-25T10:57:48.544Z,54.22
2022-12-25T11:00:58.667Z,55.74
2022-12-25T11:04:01.628Z,59.08
2022-12-25T11:07:08.780Z,61.32
2022-12-25T11:10:35.403Z,61.97
2022-12-25T11:14:03.656Z,64.22
2022-12-25T11:17:10.670Z,64.10
2022-12-25T11:20:21.352Z,63.88
2022-12-25T11:23:26.672Z,64.70
2022-12-25T11:26:36.757Z,63.51
2022-12-25T11:29:53.006Z,65.27
2022-12-25T11:32:58.912Z,64.99
2022-12-25T11:36:07.393Z,65.22
2022-12-25T11:39:28.131Z,64.46
2022-12-25T11:42:34.655Z,65.08
2022-12-25T11:45:46.586Z,65.10
2022-12-25T11:48:58.317Z,65.66
2022-12-25T11:52:00.740Z,66.23
2022-12-25T11:55:11.199Z,66.65
2022-12-25T11:58:28.781Z,65.57
2022-12-25T12:01:57.973Z,66.51
2022-12-25T12:05:21.713Z,66.87
2022-12-25T12:08:23.886Z,66.83
2022-12-25T12:11:53.513Z,66.61
2022-12-25T12:15:07.502Z,67.20
2022-12-25T12:18:30.392Z,66.85
2022-12-25T12:21:35.767Z,67.04
2022-12-25T12:24:43.818Z,67.38
2022-12-25T12:27:46.283Z,67.49
2022-12-25T12:31:03.849Z,66.83
2022-12-25T12:34:06.586Z,67.44
2022-12-25T12:37:21.350Z,67.47
2022-12-25T12:40:38.088Z,68.36
2022-12-25T12:44:07.781Z,67.89
2022-12-25T12:47:48.406Z,69.08
2022-12-25T12:51:06.585Z,70.21
2022-12-25T12:54:25.342Z,70.05
2022-12-25T12:57:32.850Z,69.70
2022-12-25T13:00:52.557Z,69.83
2022-12-25T13:04:30.094Z,70.59
2022-12-25T13:07:56.239Z,71.83
2022-12-25T13:11:21.720Z,72.65
2022-12-25T13:14:33.293Z,71.72
2022-12-25T13:17:45.254Z,71.32
2022-12-25T13:20:57.491Z,70.89
2022-12-25T13:24:10.781Z,70.78
2022-12-25T13:27:29.281Z,70.97
2022-12-25T13:30:31.311Z,71.43
2022-12-25T13:33:46.399Z,73.34
2022-12-25T13:36:51.004Z,72.47
2022-12-25T13:39:53.057Z,70.34
2022-12-25T13:42:59.669Z,68.88
2022-12-25T13:46:01.843Z,69.03
2022-12-25T13:49:14.313Z,68.45
2022-12-25T13:52:21.329Z,66.81
2022-12-25T13:55:30.689Z,69.89
2022-12-25T13:58:39.576Z,67.81
2022-12-25T14:01:45.687Z,65.07
2022-12-25T14:04:47.787Z,63.51
2022-12-25T14:07:56.277Z,61.29
2022-12-25T14:10:59.315Z,61.27
2022-12-25T14:14:15.182Z,59.24
2022-12-25T14:17:24.993Z,61.53
2022-12-25T14:20:43.253Z,65.34
2022-12-25T14:23:49.407Z,59.70
2022-12-25T14:26:59.922Z,61.51
2022-12-25T14:30:04.305Z,60.79
2022-12-25T14:33:15.904Z,61.56
2022-12-25T14:36:29.232Z,62.98
2022-12-25T14:39:39.241Z,62.78
2022-12-25T14:42:42.295Z,65.58
2022-12-25T14:46:03.144Z,64.37
2022-12-25T14:49:28.564Z,65.77
2022-12-25T14:52:46.446Z,69.09
2022-12-25T14:55:59.352Z,67.85
2022-12-25T14:59:03.012Z,68.95
2022-12-25T15:02:10.569Z,69.40
2022-12-25T15:05:38.353Z,69.79
2022-12-25T15:08:40.428Z,69.59
2022-12-25T15:11:44.584Z,68.97
2022-12-25T15:14:46.767Z,70.11
2022-12-25T15:17:50.688Z,69.13
2022-12-25T15:20:56.519Z,69.50
2022-12-25T15:24:00.136Z,69.18
2022-12-25T15:27:03.429Z,69.19
2022-12-25T15:30:10.196Z,67.07
2022-12-25T15:33:14.790Z,67.84
2022-12-25T15:36:24.260Z,67.68
2022-12-25T15:39:26.659Z,67.65
2022-12-25T15:42:30.858Z,67.63
2022-12-25T15:45:33.183Z,67.74
2022-12-25T15:48:40.034Z,68.88
2022-12-25T15:51:43.485Z,68.82
2022-12-25T15:54:45.795Z,75.56
2022-12-25T15:57:48.856Z,80.54
2022-12-25T16:00:52.925Z,81.81
2022-12-25T16:04:16.564Z,82.76
2022-12-25T16:07:37.946Z,77.72
2022-12-25T16:11:16.441Z,75.87
2022-12-25T16:14:22.252Z,77.99
2022-12-25T16:17:27.227Z,75.24
2022-12-25T16:20:32.854Z,74.10
2022-12-25T16:23:34.884Z,74.02
2022-12-25T16:26:48.427Z,76.87
2022-12-25T16:29:58.858Z,76.42
2022-12-25T16:33:13.748Z,75.36
2022-12-25T16:36:26.748Z,77.11
2022-12-25T16:39:29.484Z,76.25
2022-12-25T16:42:31.592Z,76.29
2022-12-25T16:45:45.570Z,78.93
2022-12-25T16:48:49.589Z,78.47
2022-12-25T16:51:52.027Z,78.46
2022-12-25T16:54:54.160Z,83.20
2022-12-25T16:57:57.006Z,86.31
2022-12-25T17:01:13.086Z,81.67
2022-12-25T17:04:15.717Z,77.54
2022-12-25T17:07:18.392Z,76.86
2022-12-25T17:10:21.864Z,76.83
2022-12-25T17:13:27.149Z,77.36
2022-12-25T17:16:36.038Z,78.92
2022-12-25T17:19:39.196Z,78.40
2022-12-25T17:22:41.364Z,78.08
2022-12-25T17:25:43.417Z,76.42
2022-12-25T17:28:52.538Z,74.97
2022-12-25T17:31:56.137Z,74.85
2022-12-25T17:34:58.413Z,74.55
2022-12-25T17:38:02.131Z,72.18
2022-12-25T17:41:06.898Z,72.39
2022-12-25T17:44:10.023Z,71.91
2022-12-25T17:47:12.656Z,71.00
2022-12-25T17:50:22.789Z,70.06
2022-12-25T17:53:39.526Z,70.29
2022-12-25T17:56:57.105Z,70.02
2022-12-25T18:04:15.960Z,69.30
2022-12-25T18:07:29.531Z,69.63
2022-12-25T18:10:38.963Z,67.86
2022-12-25T18:13:43.634Z,68.25
2022-12-25T18:16:47.327Z,68.08
2022-12-25T18:19:51.487Z,66.66
2022-12-25T18:22:53.571Z,66.12
2022-12-25T18:25:56.114Z,67.19
2022-12-25T18:28:58.691Z,66.04
2022-12-25T18:32:01.371Z,65.43
2022-12-25T18:35:03.906Z,66.14
2022-12-25T18:38:11.688Z,65.91
2022-12-25T18:41:14.687Z,64.96
2022-12-25T18:44:17.023Z,64.94
2022-12-25T18:47:19.311Z,63.95
2022-12-25T18:50:21.664Z,62.22
2022-12-25T18:53:24.131Z,61.86
2022-12-25T18:56:26.117Z,62.08
2022-12-25T18:59:29.885Z,63.33
2022-12-25T19:02:32.076Z,61.25
2022-12-25T19:05:37.165Z,62.45
2022-12-25T19:08:39.268Z,62.25
2022-12-25T19:11:46.594Z,62.71
2022-12-25T19:14:49.704Z,65.51
2022-12-25T19:17:51.884Z,63.25
2022-12-25T19:20:53.964Z,64.03
2022-12-25T19:23:56.243Z,62.80
2022-12-25T19:26:58.344Z,64.53
2022-12-25T19:30:00.477Z,65.84
2022-12-25T19:33:02.587Z,66.43
2022-12-25T19:36:07.607Z,66.47
2022-12-25T19:39:11.847Z,67.52
2022-12-25T19:42:16.149Z,68.18
2022-12-25T19:45:18.299Z,69.25
2022-12-25T19:48:25.153Z,69.48
2022-12-25T19:51:29.599Z,68.31
2022-12-25T19:54:31.728Z,68.65
2022-12-25T19:57:36.808Z,68.48
2022-12-25T20:00:40.563Z,68.79
2022-12-25T20:03:46.744Z,68.85
2022-12-25T20:06:48.984Z,69.03
2022-12-25T20:09:51.113Z,69.03
2022-12-25T20:13:02.148Z,69.33
2022-12-25T20:16:06.362Z,69.39
2022-12-25T20:19:10.052Z,69.48
2022-12-25T20:22:12.447Z,69.51
2022-12-25T20:25:14.559Z,68.57
2022-12-25T20:28:16.651Z,69.80
2022-12-25T20:31:22.747Z,69.05
2022-12-25T20:34:25.525Z,69.72
2022-12-25T20:37:27.544Z,69.50
2022-12-25T20:40:37.578Z,69.96
2022-12-25T20:43:52.516Z,68.47
2022-12-25T20:46:55.034Z,68.42
2022-12-25T20:49:57.856Z,69.24
2022-12-25T20:53:00.004Z,67.96
2022-12-25T20:56:03.957Z,68.43
2022-12-25T20:59:06.222Z,68.75
2022-12-25T21:02:10.990Z,67.37
2022-12-25T21:05:33.935Z,68.28
2022-12-25T21:08:37.283Z,67.85
2022-12-25T21:11:39.599Z,67.69
2022-12-25T21:14:41.659Z,68.40
2022-12-25T21:17:43.800Z,68.53
2022-12-25T21:20:51.104Z,67.87
2022-12-25T21:23:55.449Z,67.80
2022-12-25T21:26:57.489Z,66.65
2022-12-25T21:29:59.574Z,67.61
2022-12-25T21:33:35.448Z,65.95
2022-12-25T21:36:40.049Z,67.19
2022-12-25T21:39:43.728Z,67.74
2022-12-25T21:42:46.001Z,68.12
2022-12-25T21:45:48.055Z,67.67
2022-12-25T21:48:50.674Z,67.42
2022-12-25T21:52:07.912Z,67.24
2022-12-25T21:55:10.149Z,66.68
2022-12-25T21:58:12.912Z,66.90
2022-12-25T22:01:18.094Z,66.78
2022-12-25T22:04:22.801Z,66.80
2022-12-25T22:07:27.206Z,67.50
2022-12-25T22:10:31.169Z,67.90
2022-12-25T22:13:51.877Z,67.54
2022-12-25T22:17:12.527Z,66.69
2022-12-25T22:20:31.652Z,66.84
2022-12-25T22:23:33.744Z,67.07
2022-12-25T22:26:36.029Z,69.39
2022-12-25T22:29:38.278Z,70.48
2022-12-25T22:32:41.072Z,70.41
2022-12-25T22:35:43.372Z,70.95
2022-12-25T22:38:45.470Z,70.58
2022-12-25T22:41:48.487Z,70.44
2022-12-25T22:44:50.619Z,70.48
2022-12-25T22:47:52.617Z,70.55
2022-12-25T22:50:54.599Z,70.04
2022-12-25T22:54:03.405Z,69.72
2022-12-25T22:57:06.352Z,70.03
2022-12-25T23:00:09.092Z,70.46
2022-12-25T23:03:11.300Z,70.16
2022-12-25T23:06:13.424Z,69.31
2022-12-25T23:09:24.373Z,68.75
2022-12-25T23:12:45.674Z,69.36
2022-12-25T23:15:48.196Z,68.56
2022-12-25T23:19:09.100Z,68.69
2022-12-25T23:22:31.059Z,68.22
2022-12-25T23:25:53.895Z,69.80
2022-12-25T23:29:14.450Z,69.30
2022-12-25T23:32:24.838Z,69.49
2022-12-25T23:35:27.048Z,70.06
2022-12-25T23:38:29.097Z,72.14
2022-12-25T23:41:31.350Z,75.08
2022-12-25T23:44:34.876Z,76.19
2022-12-25T23:47:36.955Z,76.35
2022-12-25T23:50:39.063Z,77.38
2022-12-25T23:53:41.183Z,78.08
2022-12-25T23:56:43.929Z,77.60
2022-12-25T23:59:46.243Z,77.98
